createdAt,value
2018-09-11T00:01:54.272Z,17.51
2018-09-11T00:04:23.064Z,17.38
2018-09-11T00:06:52.093Z,17.33
2018-09-11T00:09:20.765Z,17.25
2018-09-11T00:11:49.425Z,17.22
2018-09-11T00:14:18.211Z,17.26
2018-09-11T00:16:47.037Z,17.22
2018-09-11T00:19:15.746Z,17.20
2018-09-11T00:21:44.406Z,17.16
2018-09-11T00:24:13.135Z,17.14
2018-09-11T00:26:41.878Z,17.08
2018-09-11T00:29:10.582Z,17.05
2018-09-11T00:31:39.248Z,17.02
2018-09-11T00:34:08.052Z,17.01
2018-09-11T00:36:36.743Z,16.95
2018-09-11T00:39:06.228Z,16.89
2018-09-11T00:41:34.856Z,16.83
2018-09-11T00:44:03.625Z,16.84
2018-09-11T00:46:32.324Z,16.79
2018-09-11T00:49:00.990Z,16.75
2018-09-11T00:51:29.810Z,16.80
2018-09-11T00:53:58.455Z,16.74
2018-09-11T00:56:27.099Z,16.81
2018-09-11T00:58:55.746Z,16.79
2018-09-11T01:01:24.380Z,16.73
2018-09-11T01:03:53.066Z,16.61
2018-09-11T01:06:21.752Z,16.58
2018-09-11T01:08:50.466Z,16.65
2018-09-11T01:11:19.123Z,16.64
2018-09-11T01:13:47.762Z,16.46
2018-09-11T01:16:16.414Z,16.60
2018-09-11T01:18:45.063Z,16.60
2018-09-11T01:21:13.717Z,16.64
2018-09-11T01:23:42.350Z,16.61
2018-09-11T01:26:11.015Z,16.52
2018-09-11T01:28:39.659Z,16.44
2018-09-11T01:31:08.302Z,16.25
2018-09-11T01:33:37.007Z,16.19
2018-09-11T01:36:05.798Z,16.14
2018-09-11T01:38:34.547Z,16.08
2018-09-11T01:41:03.250Z,16.05
2018-09-11T01:43:31.914Z,16.06
2018-09-11T01:46:00.562Z,16.08
2018-09-11T01:48:29.167Z,15.99
2018-09-11T01:50:57.867Z,16.05
2018-09-11T01:53:26.517Z,16.04
2018-09-11T01:55:55.202Z,16.10
2018-09-11T01:58:23.827Z,16.12
2018-09-11T02:00:52.647Z,16.05
2018-09-11T02:03:21.271Z,16.05
2018-09-11T02:05:49.960Z,16.07
2018-09-11T02:08:18.587Z,16.03
2018-09-11T02:10:47.241Z,15.97
2018-09-11T02:13:15.917Z,15.87
2018-09-11T02:15:44.597Z,15.80
2018-09-11T02:18:13.242Z,15.69
2018-09-11T02:20:41.935Z,15.66
2018-09-11T02:23:10.614Z,15.63
2018-09-11T02:25:39.399Z,15.55
2018-09-11T02:28:08.074Z,15.55
2018-09-11T02:30:36.722Z,15.49
2018-09-11T02:33:05.490Z,15.50
2018-09-11T02:35:34.183Z,15.53
2018-09-11T02:38:02.794Z,15.48
2018-09-11T02:40:31.454Z,15.52
2018-09-11T02:43:00.084Z,15.55
2018-09-11T02:45:28.747Z,15.56
2018-09-11T02:47:57.477Z,15.58
2018-09-11T02:50:26.108Z,15.56
2018-09-11T02:52:54.851Z,15.55
2018-09-11T02:55:23.518Z,15.56
2018-09-11T02:57:52.234Z,15.49
2018-09-11T03:00:20.876Z,15.60
2018-09-11T03:02:49.555Z,15.65
2018-09-11T03:05:18.285Z,15.63
2018-09-11T03:07:46.937Z,15.59
2018-09-11T03:10:15.620Z,15.66
2018-09-11T03:12:44.278Z,15.67
2018-09-11T03:15:12.952Z,15.67
2018-09-11T03:17:41.617Z,15.67
2018-09-11T03:20:10.351Z,15.71
2018-09-11T03:22:38.991Z,15.75
2018-09-11T03:25:07.839Z,15.79
2018-09-11T03:27:36.447Z,15.82
2018-09-11T03:30:07.559Z,15.87
2018-09-11T03:32:36.230Z,15.89
2018-09-11T03:35:05.066Z,15.85
2018-09-11T03:37:33.741Z,15.85
2018-09-11T03:40:03.715Z,15.84
2018-09-11T03:42:32.362Z,15.85
2018-09-11T03:45:01.052Z,15.85
2018-09-11T03:47:29.860Z,15.82
2018-09-11T03:49:58.507Z,15.85
2018-09-11T03:52:27.324Z,15.84
2018-09-11T03:54:55.976Z,15.82
2018-09-11T03:57:24.619Z,15.85
2018-09-11T03:59:53.263Z,15.82
2018-09-11T04:02:21.940Z,15.89
2018-09-11T04:04:50.642Z,15.91
2018-09-11T04:07:19.376Z,15.83
2018-09-11T04:09:48.572Z,15.79
2018-09-11T04:12:17.589Z,15.73
2018-09-11T04:14:46.275Z,15.76
2018-09-11T04:17:15.007Z,15.83
2018-09-11T04:19:43.704Z,15.87
2018-09-11T04:22:12.403Z,15.87
2018-09-11T04:24:41.146Z,15.90
2018-09-11T04:27:09.867Z,15.85
2018-09-11T04:29:38.517Z,16.03
2018-09-11T04:32:07.203Z,16.03
2018-09-11T04:34:35.823Z,16.09
2018-09-11T04:37:04.477Z,16.14
2018-09-11T04:39:33.101Z,16.21
2018-09-11T04:42:01.815Z,16.11
2018-09-11T04:44:30.513Z,16.05
2018-09-11T04:46:59.148Z,15.91
2018-09-11T04:49:27.831Z,15.81
2018-09-11T04:51:56.498Z,15.86
2018-09-11T04:54:25.188Z,15.81
2018-09-11T04:56:54.007Z,15.90
2018-09-11T04:59:22.663Z,15.89
2018-09-11T05:01:51.370Z,15.88
2018-09-11T05:04:20.063Z,15.87
2018-09-11T05:06:48.739Z,15.84
2018-09-11T05:09:17.467Z,15.88
2018-09-11T05:11:46.223Z,16.00
2018-09-11T05:14:14.892Z,15.99
2018-09-11T05:16:43.542Z,15.99
2018-09-11T05:19:12.326Z,15.97
2018-09-11T05:21:40.923Z,15.93
2018-09-11T05:24:09.590Z,15.93
2018-09-11T05:26:38.293Z,15.96
2018-09-11T05:29:07.304Z,15.93
2018-09-11T05:31:35.934Z,15.97
2018-09-11T05:34:05.319Z,16.04
2018-09-11T05:36:34.047Z,16.04
2018-09-11T05:39:02.794Z,16.04
2018-09-11T05:41:31.433Z,16.07
2018-09-11T05:44:00.123Z,16.13
2018-09-11T05:46:28.811Z,16.24
2018-09-11T05:48:57.485Z,16.32
2018-09-11T05:51:26.238Z,16.44
2018-09-11T05:53:55.332Z,16.51
2018-09-11T05:56:23.997Z,16.54
2018-09-11T05:58:52.701Z,16.48
2018-09-11T06:01:22.044Z,16.55
2018-09-11T06:03:50.646Z,16.59
2018-09-11T06:06:19.302Z,16.69
2018-09-11T06:08:48.096Z,16.73
2018-09-11T06:11:16.803Z,16.86
2018-09-11T06:13:45.566Z,17.02
2018-09-11T06:16:14.385Z,17.17
2018-09-11T06:18:43.067Z,17.21
2018-09-11T06:21:11.791Z,17.30
2018-09-11T06:23:40.587Z,17.39
2018-09-11T06:26:09.268Z,17.44
2018-09-11T06:28:37.917Z,17.55
2018-09-11T06:31:07.062Z,17.64
2018-09-11T06:33:35.748Z,17.58
2018-09-11T06:36:04.470Z,17.72
2018-09-11T06:38:33.168Z,17.83
2018-09-11T06:41:01.880Z,18.03
2018-09-11T06:43:30.524Z,18.01
2018-09-11T06:45:59.298Z,18.19
2018-09-11T06:48:27.975Z,18.25
2018-09-11T06:50:56.729Z,18.37
2018-09-11T06:53:25.506Z,18.46
2018-09-11T06:55:54.200Z,18.52
2018-09-11T06:58:22.822Z,18.61
2018-09-11T07:00:51.487Z,18.70
2018-09-11T07:03:20.135Z,18.75
2018-09-11T07:05:48.753Z,18.78
2018-09-11T07:08:17.566Z,18.75
2018-09-11T07:10:46.319Z,18.73
2018-09-11T07:13:15.082Z,18.82
2018-09-11T07:15:43.755Z,18.94
2018-09-11T07:18:12.430Z,19.02
2018-09-11T07:20:41.075Z,19.13
2018-09-11T07:23:09.850Z,19.20
2018-09-11T07:25:38.525Z,19.38
2018-09-11T07:28:07.198Z,19.40
2018-09-11T07:30:35.875Z,19.49
2018-09-11T07:33:04.611Z,19.50
2018-09-11T07:35:33.249Z,19.63
2018-09-11T07:38:01.911Z,19.73
2018-09-11T07:40:30.628Z,19.78
2018-09-11T07:42:59.298Z,19.78
2018-09-11T07:45:28.125Z,19.81
2018-09-11T07:47:56.775Z,19.83
2018-09-11T07:50:25.472Z,19.86
2018-09-11T07:52:54.293Z,19.88
2018-09-11T07:55:22.975Z,19.90
2018-09-11T07:57:51.581Z,19.96
2018-09-11T08:00:20.300Z,20.11
2018-09-11T08:02:48.934Z,20.18
2018-09-11T08:05:17.641Z,20.30
2018-09-11T08:07:46.236Z,20.38
2018-09-11T08:10:14.883Z,20.49
2018-09-11T08:12:43.496Z,20.55
2018-09-11T08:15:12.189Z,20.52
2018-09-11T08:18:08.200Z,20.51
2018-09-11T08:20:36.951Z,20.63
2018-09-11T08:23:05.665Z,20.79
2018-09-11T08:25:34.423Z,20.54
2018-09-11T08:28:03.118Z,20.49
2018-09-11T08:30:32.625Z,20.42
2018-09-11T08:33:02.334Z,20.54
2018-09-11T08:35:31.091Z,20.49
2018-09-11T08:38:00.389Z,20.74
2018-09-11T08:40:29.104Z,21.07
2018-09-11T08:42:57.785Z,20.97
2018-09-11T08:45:26.479Z,20.97
2018-09-11T08:47:55.169Z,21.08
2018-09-11T08:50:23.927Z,21.02
2018-09-11T08:52:52.753Z,21.18
2018-09-11T08:55:21.371Z,21.12
2018-09-11T08:57:50.035Z,21.27
2018-09-11T09:00:18.800Z,21.52
2018-09-11T09:02:47.463Z,21.74
2018-09-11T09:05:16.108Z,21.90
2018-09-11T09:07:44.770Z,21.82
2018-09-11T09:10:13.501Z,21.62
2018-09-11T09:12:42.081Z,21.50
2018-09-11T09:15:10.829Z,21.54
2018-09-11T09:17:39.477Z,21.72
2018-09-11T09:20:08.208Z,21.81
2018-09-11T09:22:36.870Z,21.79
2018-09-11T09:25:06.135Z,21.75
2018-09-11T09:27:34.817Z,21.73
2018-09-11T09:30:05.380Z,21.83
2018-09-11T09:32:33.978Z,22.00
2018-09-11T09:35:02.635Z,22.27
2018-09-11T09:37:31.268Z,22.33
2018-09-11T09:39:59.931Z,22.33
2018-09-11T09:42:28.542Z,22.38
2018-09-11T09:44:57.238Z,22.38
2018-09-11T09:47:25.866Z,22.55
2018-09-11T09:49:54.489Z,22.68
2018-09-11T09:52:24.124Z,22.66
2018-09-11T09:54:52.746Z,22.74
2018-09-11T09:57:21.351Z,22.55
2018-09-11T09:59:49.966Z,22.25
2018-09-11T10:02:23.172Z,22.47
2018-09-11T10:04:52.605Z,22.84
2018-09-11T10:07:22.031Z,22.92
2018-09-11T10:09:50.924Z,22.88
2018-09-11T10:12:19.610Z,22.84
2018-09-11T10:14:48.340Z,22.70
2018-09-11T10:17:16.988Z,22.69
2018-09-11T10:19:45.692Z,22.53
2018-09-11T10:22:14.331Z,22.50
2018-09-11T10:24:42.974Z,22.76
2018-09-11T10:27:12.240Z,22.68
2018-09-11T10:29:40.837Z,22.41
2018-09-11T10:32:09.492Z,22.24
2018-09-11T10:34:38.096Z,22.43
2018-09-11T10:37:07.317Z,22.69
2018-09-11T10:39:35.933Z,23.13
2018-09-11T10:42:04.579Z,23.00
2018-09-11T10:44:33.223Z,22.66
2018-09-11T10:47:01.943Z,22.27
2018-09-11T10:49:30.838Z,22.59
2018-09-11T10:51:59.638Z,22.88
2018-09-11T10:54:28.136Z,22.95
2018-09-11T10:56:56.985Z,23.08
2018-09-11T10:59:25.658Z,23.31
2018-09-11T11:01:54.296Z,23.23
2018-09-11T11:04:23.007Z,23.03
2018-09-11T11:06:51.636Z,23.12
2018-09-11T11:09:20.238Z,23.35
2018-09-11T11:11:48.871Z,23.79
2018-09-11T11:14:17.478Z,23.54
2018-09-11T11:16:46.087Z,23.61
2018-09-11T11:19:14.719Z,23.81
2018-09-11T11:21:43.367Z,24.15
2018-09-11T11:24:12.284Z,24.47
2018-09-11T11:26:40.937Z,24.80
2018-09-11T11:29:09.540Z,24.99
2018-09-11T11:31:38.177Z,24.63
2018-09-11T11:34:07.317Z,23.87
2018-09-11T11:36:36.037Z,23.62
2018-09-11T11:39:06.251Z,23.79
2018-09-11T11:41:34.852Z,23.84
2018-09-11T11:44:03.588Z,23.86
2018-09-11T11:46:32.190Z,23.68
2018-09-11T11:49:00.898Z,23.66
2018-09-11T11:51:29.558Z,23.88
2018-09-11T11:53:58.478Z,24.62
2018-09-11T11:56:27.113Z,25.30
2018-09-11T11:58:55.826Z,25.72
2018-09-11T12:01:24.507Z,25.67
2018-09-11T12:03:53.090Z,26.30
2018-09-11T12:06:21.776Z,27.11
2018-09-11T12:08:50.350Z,27.61
2018-09-11T12:11:19.075Z,27.79
2018-09-11T12:13:47.780Z,28.33
2018-09-11T12:16:16.494Z,28.68
2018-09-11T12:18:45.252Z,28.81
2018-09-11T12:21:13.913Z,29.40
2018-09-11T12:23:42.598Z,29.50
2018-09-11T12:26:11.225Z,29.52
2018-09-11T12:28:39.886Z,29.68
2018-09-11T12:31:08.580Z,29.60
2018-09-11T12:33:37.323Z,29.14
2018-09-11T12:36:06.554Z,28.47
2018-09-11T12:38:35.162Z,28.03
2018-09-11T12:41:03.825Z,26.85
2018-09-11T12:43:32.540Z,26.52
2018-09-11T12:46:01.505Z,26.62
2018-09-11T12:48:30.108Z,27.09
2018-09-11T12:50:58.753Z,27.17
2018-09-11T12:53:27.413Z,27.03
2018-09-11T12:55:56.084Z,26.96
2018-09-11T12:58:24.874Z,26.55
2018-09-11T13:00:53.567Z,27.09
2018-09-11T13:03:22.168Z,26.73
2018-09-11T13:05:50.814Z,26.38
2018-09-11T13:08:19.474Z,26.92
2018-09-11T13:10:48.186Z,27.68
2018-09-11T13:13:16.866Z,27.88
2018-09-11T13:15:45.500Z,27.72
2018-09-11T13:18:14.222Z,26.85
2018-09-11T13:20:42.873Z,26.86
2018-09-11T13:23:11.515Z,27.36
2018-09-11T13:25:40.154Z,27.49
2018-09-11T13:28:08.786Z,27.60
2018-09-11T13:30:37.458Z,27.36
2018-09-11T13:33:06.652Z,27.12
2018-09-11T13:35:35.381Z,26.74
2018-09-11T13:38:04.005Z,26.41
2018-09-11T13:40:32.807Z,25.92
2018-09-11T13:43:01.421Z,25.74
2018-09-11T13:45:30.111Z,26.25
2018-09-11T13:47:58.801Z,26.93
2018-09-11T13:50:27.386Z,27.34
2018-09-11T13:52:56.094Z,27.94
2018-09-11T13:55:24.668Z,27.94
2018-09-11T13:57:53.342Z,27.45
2018-09-11T14:00:21.967Z,26.40
2018-09-11T14:02:50.582Z,25.95
2018-09-11T14:05:19.231Z,25.30
2018-09-11T14:07:47.841Z,25.10
2018-09-11T14:10:16.618Z,25.00
2018-09-11T14:12:45.299Z,24.92
2018-09-11T14:15:13.882Z,24.80
2018-09-11T14:17:42.573Z,24.63
2018-09-11T14:20:11.226Z,24.55
2018-09-11T14:22:39.815Z,24.55
2018-09-11T14:25:08.560Z,24.52
2018-09-11T14:27:37.172Z,24.44
2018-09-11T14:30:07.290Z,24.26
2018-09-11T14:32:35.940Z,24.10
2018-09-11T14:35:04.611Z,23.72
2018-09-11T14:37:33.271Z,23.48
2018-09-11T14:40:01.891Z,23.10
2018-09-11T14:42:30.516Z,22.86
2018-09-11T14:44:59.169Z,22.85
2018-09-11T14:47:33.135Z,22.91
2018-09-11T14:50:01.748Z,22.90
2018-09-11T14:52:30.432Z,23.13
2018-09-11T14:54:59.124Z,23.58
2018-09-11T14:57:27.828Z,23.54
2018-09-11T14:59:56.414Z,23.64
2018-09-11T15:02:25.048Z,23.70
2018-09-11T15:04:53.758Z,23.61
2018-09-11T15:07:22.395Z,23.61
2018-09-11T15:09:51.079Z,23.33
2018-09-11T15:12:19.868Z,23.22
2018-09-11T15:14:48.597Z,23.10
2018-09-11T15:17:18.043Z,22.96
2018-09-11T15:19:46.698Z,22.74
2018-09-11T15:22:15.500Z,22.56
2018-09-11T15:24:44.106Z,22.55
2018-09-11T15:27:12.753Z,22.56
2018-09-11T15:29:41.441Z,22.45
2018-09-11T15:32:10.080Z,22.53
2018-09-11T15:34:38.785Z,22.77
2018-09-11T15:37:07.449Z,22.92
2018-09-11T15:39:36.073Z,22.76
2018-09-11T15:42:04.747Z,22.46
2018-09-11T15:44:33.395Z,22.25
2018-09-11T15:47:02.092Z,22.17
2018-09-11T15:49:30.741Z,22.15
2018-09-11T15:51:59.488Z,22.14
2018-09-11T15:54:28.293Z,22.05
2018-09-11T15:56:56.935Z,21.99
2018-09-11T15:59:25.607Z,21.91
2018-09-11T16:01:54.294Z,21.79
2018-09-11T16:04:22.985Z,21.76
2018-09-11T16:06:51.716Z,21.98
2018-09-11T16:09:20.425Z,22.08
2018-09-11T16:11:49.129Z,22.07
2018-09-11T16:14:18.190Z,22.04
2018-09-11T16:16:46.854Z,22.02
2018-09-11T16:19:16.022Z,21.93
2018-09-11T16:21:44.709Z,22.02
2018-09-11T16:24:13.306Z,21.98
2018-09-11T16:26:41.944Z,21.93
2018-09-11T16:29:10.566Z,21.88
2018-09-11T16:31:39.202Z,21.74
2018-09-11T16:34:07.917Z,21.72
2018-09-11T16:36:36.586Z,21.62
2018-09-11T16:39:07.904Z,21.51
2018-09-11T16:41:36.538Z,21.40
2018-09-11T16:44:05.183Z,21.28
2018-09-11T16:46:33.862Z,21.24
2018-09-11T16:49:02.487Z,21.25
2018-09-11T16:51:31.152Z,21.04
2018-09-11T16:53:59.815Z,21.06
2018-09-11T16:56:28.534Z,21.08
2018-09-11T16:58:57.199Z,20.97
2018-09-11T17:01:25.892Z,21.07
2018-09-11T17:03:54.599Z,21.06
2018-09-11T17:06:23.300Z,21.12
2018-09-11T17:08:52.054Z,21.14
2018-09-11T17:11:20.822Z,21.15
2018-09-11T17:13:49.463Z,21.19
2018-09-11T17:16:18.256Z,21.03
2018-09-11T17:18:46.944Z,20.94
2018-09-11T17:21:15.606Z,20.98
2018-09-11T17:23:44.380Z,20.78
2018-09-11T17:26:13.039Z,20.72
2018-09-11T17:28:41.738Z,20.68
2018-09-11T17:31:10.478Z,20.65
2018-09-11T17:33:39.173Z,20.49
2018-09-11T17:36:07.897Z,20.51
2018-09-11T17:41:18.744Z,20.39
2018-09-11T17:43:47.427Z,20.28
2018-09-11T17:46:16.149Z,20.31
2018-09-11T17:48:44.989Z,20.25
2018-09-11T17:51:13.618Z,20.25
2018-09-11T17:53:42.334Z,20.16
2018-09-11T17:56:10.990Z,20.12
2018-09-11T17:58:39.684Z,20.06
2018-09-11T18:01:08.432Z,20.03
2018-09-11T18:03:37.175Z,19.92
2018-09-11T18:06:05.805Z,19.76
2018-09-11T18:08:34.489Z,19.69
2018-09-11T18:11:03.185Z,19.62
2018-09-11T18:13:31.917Z,19.57
2018-09-11T18:16:00.560Z,19.54
2018-09-11T18:18:29.216Z,19.51
2018-09-11T18:20:57.920Z,19.46
2018-09-11T18:23:26.666Z,19.46
2018-09-11T18:25:55.357Z,19.44
2018-09-11T18:28:23.959Z,19.41
2018-09-11T18:30:52.638Z,19.34
2018-09-11T18:33:21.292Z,19.28
2018-09-11T18:35:49.991Z,19.23
2018-09-11T18:38:18.641Z,19.19
2018-09-11T18:40:47.357Z,19.18
2018-09-11T18:43:16.039Z,19.17
2018-09-11T18:45:44.780Z,19.14
2018-09-11T18:48:13.466Z,19.16
2018-09-11T18:50:42.158Z,19.18
2018-09-11T18:53:10.866Z,19.24
2018-09-11T18:55:39.710Z,19.21
2018-09-11T18:58:08.586Z,19.20
2018-09-11T19:00:37.279Z,19.06
2018-09-11T19:03:06.145Z,19.10
2018-09-11T19:05:34.797Z,19.14
2018-09-11T19:08:03.868Z,19.01
2018-09-11T19:10:32.572Z,18.91
2018-09-11T19:13:01.247Z,18.82
2018-09-11T19:15:29.946Z,18.91
2018-09-11T19:17:58.659Z,18.89
2018-09-11T19:20:27.701Z,18.91
2018-09-11T19:22:56.818Z,18.83
2018-09-11T19:25:25.796Z,18.94
2018-09-11T19:27:54.507Z,18.94
2018-09-11T19:30:23.539Z,18.86
2018-09-11T19:32:52.328Z,18.82
2018-09-11T19:35:20.990Z,18.83
2018-09-11T19:37:49.792Z,18.83
2018-09-11T19:40:18.549Z,18.85
2018-09-11T19:42:47.151Z,18.91
2018-09-11T19:45:15.899Z,18.80
2018-09-11T19:47:44.560Z,18.80
2018-09-11T19:50:13.284Z,18.67
2018-09-11T19:52:42.051Z,18.82
2018-09-11T19:55:10.885Z,18.82
2018-09-11T19:57:39.694Z,18.82
2018-09-11T20:00:11.163Z,18.65
2018-09-11T20:02:39.813Z,18.69
2018-09-11T20:05:08.520Z,18.65
2018-09-11T20:07:37.156Z,18.57
2018-09-11T20:10:05.885Z,18.64
2018-09-11T20:12:34.562Z,18.54
2018-09-11T20:15:03.309Z,18.42
2018-09-11T20:17:32.042Z,18.36
2018-09-11T20:20:00.828Z,18.43
2018-09-11T20:22:29.516Z,18.32
2018-09-11T20:24:58.231Z,18.36
2018-09-11T20:27:26.941Z,18.20
2018-09-11T20:29:55.624Z,18.23
2018-09-11T20:32:24.977Z,18.27
2018-09-11T20:34:53.739Z,18.21
2018-09-11T20:37:22.505Z,18.21
2018-09-11T20:39:51.204Z,18.13
2018-09-11T20:42:19.832Z,18.21
2018-09-11T20:44:48.536Z,18.15
2018-09-11T20:47:17.212Z,18.16
2018-09-11T20:49:46.004Z,18.28
2018-09-11T20:52:14.870Z,18.20
2018-09-11T20:54:43.677Z,18.16
2018-09-11T20:57:12.480Z,18.23
2018-09-11T20:59:41.674Z,18.29
2018-09-11T21:02:10.351Z,18.33
2018-09-11T21:04:39.103Z,18.25
2018-09-11T21:07:07.801Z,18.41
2018-09-11T21:09:36.430Z,18.41
2018-09-11T21:12:05.266Z,18.39
2018-09-11T21:14:33.963Z,18.27
2018-09-11T21:17:02.622Z,18.24
2018-09-11T21:19:31.242Z,18.23
2018-09-11T21:21:59.890Z,18.21
2018-09-11T21:24:28.538Z,18.15
2018-09-11T21:26:57.245Z,18.21
2018-09-11T21:29:25.943Z,18.17
2018-09-11T21:31:54.629Z,18.13
2018-09-11T21:34:23.392Z,18.15
2018-09-11T21:36:52.225Z,18.18
2018-09-11T21:39:20.879Z,18.16
2018-09-11T21:41:49.574Z,18.04
2018-09-11T21:44:18.980Z,18.12
2018-09-11T21:46:47.616Z,18.18
2018-09-11T21:49:16.288Z,18.14
2018-09-11T21:51:45.023Z,18.17
2018-09-11T21:54:13.639Z,18.20
2018-09-11T21:56:42.262Z,18.21
2018-09-11T21:59:11.356Z,18.15
2018-09-11T22:01:45.252Z,18.00
2018-09-11T22:04:13.938Z,18.02
2018-09-11T22:06:42.621Z,17.96
2018-09-11T22:09:12.077Z,17.84
2018-09-11T22:11:41.411Z,17.71
2018-09-11T22:14:10.613Z,17.76
2018-09-11T22:16:40.218Z,17.76
2018-09-11T22:19:08.969Z,17.70
2018-09-11T22:21:38.166Z,17.74
2018-09-11T22:24:06.863Z,17.77
2018-09-11T22:26:35.691Z,17.73
2018-09-11T22:29:04.426Z,17.72
2018-09-11T22:31:33.104Z,17.74
2018-09-11T22:34:02.035Z,17.70
2018-09-11T22:36:30.767Z,17.66
2018-09-11T22:38:59.443Z,17.71
2018-09-11T22:41:28.091Z,17.65
2018-09-11T22:43:56.760Z,17.70
2018-09-11T22:46:25.860Z,17.67
2018-09-11T22:48:54.527Z,17.61
2018-09-11T22:51:23.154Z,17.58
2018-09-11T22:53:51.782Z,17.36
2018-09-11T22:56:20.427Z,17.44
2018-09-11T22:58:49.034Z,17.40
2018-09-11T23:01:17.671Z,17.43
2018-09-11T23:03:46.326Z,17.45
2018-09-11T23:06:15.038Z,17.46
2018-09-11T23:08:43.708Z,17.49
2018-09-11T23:11:12.364Z,17.52
2018-09-11T23:13:41.011Z,17.58
2018-09-11T23:16:09.763Z,17.54
2018-09-11T23:18:38.424Z,17.43
2018-09-11T23:21:07.243Z,17.25
2018-09-11T23:23:35.890Z,17.34
2018-09-11T23:26:04.591Z,17.29
2018-09-11T23:28:33.222Z,17.23
2018-09-11T23:31:01.955Z,17.18
2018-09-11T23:33:30.587Z,17.15
2018-09-11T23:35:59.206Z,16.98
2018-09-11T23:38:27.861Z,17.04
2018-09-11T23:40:56.502Z,16.89
2018-09-11T23:43:25.249Z,16.86
2018-09-11T23:45:54.094Z,16.78
2018-09-11T23:48:22.773Z,16.66
2018-09-11T23:50:51.378Z,16.80
2018-09-11T23:53:19.992Z,16.80
2018-09-11T23:55:48.694Z,16.83
2018-09-11T23:58:17.358Z,16.76
